Time;durP1;ratioP1;P1;durP2;ratioP2;P2;SDS_P1;SDS_P2;PMS_P1;PMS_P2;Temp;Humidity;BMP_temperature;BMP_pressure;BME280_temperature;BME280_humidity;BME280_pressure;Samples;Min_cycle;Max_cycle;Signal;HPM_P1;HPM_P2
2021/04/25 00:01:32;;;;;;;8.43;3.80;;;6.40;63.10;;;;;;4979992;28;20397;-49
2021/04/25 00:03:58;;;;;;;7.03;2.97;;;6.60;61.00;;;;;;4976669;28;20046;-48
2021/04/25 00:06:23;;;;;;;7.68;3.50;;;6.60;60.50;;;;;;4984907;28;20094;-51
2021/04/25 00:08:49;;;;;;;11.82;3.92;;;6.50;61.60;;;;;;4979738;28;20487;-50
2021/04/25 00:11:15;;;;;;;8.77;3.60;;;6.40;61.80;;;;;;4974479;28;20038;-51
2021/04/25 00:13:43;;;;;;;12.43;3.50;;;6.40;62.10;;;;;;4987378;28;20165;-50
2021/04/25 00:16:10;;;;;;;7.43;3.67;;;6.40;62.00;;;;;;4980514;28;20035;-55
2021/04/25 00:18:35;;;;;;;10.85;3.78;;;6.40;62.10;;;;;;4987431;28;20109;-52
2021/04/25 00:21:02;;;;;;;10.52;3.85;;;6.50;62.00;;;;;;4987125;28;20113;-53
2021/04/25 00:23:27;;;;;;;7.93;3.38;;;6.50;61.60;;;;;;4989480;28;20050;-52
2021/04/25 00:25:53;;;;;;;8.63;3.47;;;6.40;62.30;;;;;;4986183;28;20045;-57
2021/04/25 00:28:19;;;;;;;9.18;3.55;;;6.50;61.60;;;;;;4988826;28;20478;-53
2021/04/25 00:30:45;;;;;;;9.05;3.47;;;6.40;62.40;;;;;;4981128;28;20042;-53
2021/04/25 00:33:10;;;;;;;10.38;3.40;;;6.40;62.50;;;;;;4986664;28;20053;-51
2021/04/25 00:35:36;;;;;;;9.60;3.28;;;6.50;62.30;;;;;;4985902;28;20035;-51
2021/04/25 00:38:02;;;;;;;6.57;3.17;;;6.60;61.70;;;;;;4983205;28;20034;-52
2021/04/25 00:40:28;;;;;;;7.95;3.35;;;6.50;62.10;;;;;;4976511;28;20081;-52
2021/04/25 00:42:53;;;;;;;9.15;3.65;;;6.50;62.50;;;;;;4976495;28;20042;-56
2021/04/25 00:45:19;;;;;;;8.63;3.88;;;6.50;62.70;;;;;;4979793;28;20103;-52
2021/04/25 00:47:48;;;;;;;13.23;4.15;;;6.50;62.80;;;;;;4987779;28;20441;-54
2021/04/25 00:50:17;;;;;;;8.60;3.53;;;6.50;63.00;;;;;;4989559;28;20042;-54
2021/04/25 00:52:45;;;;;;;10.55;3.90;;;6.50;63.30;;;;;;4978249;28;20418;-52
2021/04/25 00:55:13;;;;;;;9.70;3.88;;;6.40;63.30;;;;;;4981462;28;20043;-53
2021/04/25 00:57:40;;;;;;;8.55;3.65;;;6.50;63.00;;;;;;4985589;28;21366;-54
2021/04/25 01:00:09;;;;;;;11.63;4.25;;;6.50;63.20;;;;;;4982077;28;20055;-51
2021/04/25 01:02:35;;;;;;;12.10;3.63;;;6.60;62.10;;;;;;4988751;28;20066;-52
2021/04/25 01:05:04;;;;;;;9.85;3.20;;;6.60;61.60;;;;;;5004951;28;20503;-53
2021/04/25 01:07:29;;;;;;;11.65;3.40;;;6.50;62.60;;;;;;4986593;28;20088;-53
2021/04/25 01:09:55;;;;;;;8.18;2.88;;;6.80;60.80;;;;;;4981047;28;20491;-52
2021/04/25 01:12:22;;;;;;;9.13;3.33;;;6.70;61.70;;;;;;4988984;28;20104;-51
2021/04/25 01:14:48;;;;;;;12.02;3.67;;;6.70;61.30;;;;;;4981651;28;20043;-55
2021/04/25 01:17:13;;;;;;;11.68;3.10;;;6.60;61.90;;;;;;4987020;28;20038;-51
2021/04/25 01:19:39;;;;;;;8.23;3.35;;;6.50;62.30;;;;;;4988806;28;20046;-50
2021/04/25 01:22:06;;;;;;;8.50;3.40;;;6.50;62.70;;;;;;4980806;28;20069;-54
2021/04/25 01:24:31;;;;;;;13.18;3.30;;;6.50;62.80;;;;;;4988067;28;20052;-51
2021/04/25 01:26:57;;;;;;;8.15;3.28;;;6.50;62.70;;;;;;4987045;28;20034;-53
2021/04/25 01:29:23;;;;;;;7.43;3.28;;;6.40;63.20;;;;;;4978500;28;20100;-50
2021/04/25 01:31:49;;;;;;;10.02;3.47;;;6.50;63.70;;;;;;4989118;28;20054;-54
2021/04/25 01:34:15;;;;;;;8.13;3.08;;;6.50;63.00;;;;;;4987786;28;20042;-54
2021/04/25 01:36:40;;;;;;;12.35;2.90;;;6.50;63.00;;;;;;4988637;28;20509;-54
2021/04/25 01:39:07;;;;;;;9.93;3.00;;;6.60;62.80;;;;;;4952440;28;20038;-53
2021/04/25 01:41:32;;;;;;;6.25;3.00;;;6.50;62.80;;;;;;4985394;28;20049;-50
2021/04/25 01:43:58;;;;;;;12.45;3.30;;;6.60;62.80;;;;;;4986854;28;20042;-54
2021/04/25 01:46:24;;;;;;;11.38;2.95;;;6.70;62.60;;;;;;4978638;28;20043;-54
2021/04/25 01:48:50;;;;;;;12.60;3.22;;;6.50;63.10;;;;;;4988150;28;20072;-51
2021/04/25 01:51:16;;;;;;;8.85;2.75;;;6.50;63.30;;;;;;4979446;28;20047;-50
2021/04/25 01:53:41;;;;;;;7.60;2.95;;;6.50;63.60;;;;;;4980285;28;20489;-51
2021/04/25 01:56:07;;;;;;;9.82;2.70;;;6.50;63.40;;;;;;4976542;28;20049;-52
2021/04/25 01:58:33;;;;;;;9.48;2.78;;;6.60;62.70;;;;;;4988471;28;20069;-54
2021/04/25 02:00:58;;;;;;;9.00;2.95;;;6.60;62.60;;;;;;4987882;28;20073;-48
2021/04/25 02:03:25;;;;;;;13.13;2.55;;;6.50;63.50;;;;;;4988486;28;20046;-52
2021/04/25 02:05:51;;;;;;;8.82;2.50;;;6.50;63.50;;;;;;4981827;28;20537;-54
2021/04/25 02:08:17;;;;;;;8.63;2.95;;;6.50;63.60;;;;;;4979779;28;20043;-51
2021/04/25 02:10:43;;;;;;;12.27;2.30;;;6.60;62.70;;;;;;4980868;28;20340;-52
2021/04/25 02:13:10;;;;;;;11.20;2.60;;;6.50;62.40;;;;;;4984538;28;20046;-53
2021/04/25 02:15:36;;;;;;;6.75;2.15;;;6.40;63.50;;;;;;4973845;28;20468;-52
2021/04/25 02:18:02;;;;;;;11.73;2.40;;;6.40;63.60;;;;;;4970709;28;20491;-52
2021/04/25 02:20:28;;;;;;;10.18;2.88;;;6.30;63.70;;;;;;4969366;28;20411;-50
2021/04/25 02:22:55;;;;;;;6.88;2.10;;;6.30;63.80;;;;;;4975887;28;20050;-52
2021/04/25 02:25:22;;;;;;;10.80;2.58;;;6.30;63.90;;;;;;4976932;28;20110;-52
2021/04/25 02:27:48;;;;;;;9.45;2.38;;;6.40;63.40;;;;;;4974231;28;20506;-53
2021/04/25 02:30:17;;;;;;;9.63;2.53;;;6.40;63.00;;;;;;4985532;28;20046;-54
2021/04/25 02:32:43;;;;;;;10.73;2.45;;;6.40;62.90;;;;;;4973260;28;20046;-53
2021/04/25 02:35:11;;;;;;;9.10;2.70;;;6.40;62.80;;;;;;4979173;28;20055;-50
2021/04/25 02:37:37;;;;;;;9.80;2.53;;;6.40;62.60;;;;;;4979004;28;20039;-54
2021/04/25 02:40:12;;;;;;;10.15;2.58;;;6.30;63.00;;;;;;4978443;28;20073;-52
2021/04/25 02:42:38;;;;;;;11.27;2.50;;;6.30;63.50;;;;;;4982919;28;20054;-50
2021/04/25 02:45:05;;;;;;;11.07;2.58;;;6.20;63.70;;;;;;4976586;28;20039;-52
2021/04/25 02:47:31;;;;;;;8.13;2.50;;;6.20;64.10;;;;;;4981798;28;20042;-51
2021/04/25 02:49:57;;;;;;;9.88;2.70;;;6.30;63.70;;;;;;4969833;28;20043;-52
2021/04/25 02:52:26;;;;;;;8.20;2.70;;;6.20;64.00;;;;;;4984706;28;20038;-50
2021/04/25 02:54:53;;;;;;;6.88;2.55;;;6.20;64.40;;;;;;4980212;28;20455;-52
2021/04/25 02:57:19;;;;;;;10.48;2.60;;;6.10;64.50;;;;;;4984140;28;20041;-49
2021/04/25 02:59:45;;;;;;;8.85;2.50;;;6.20;64.70;;;;;;4968789;28;20065;-51
2021/04/25 03:02:11;;;;;;;13.52;2.92;;;6.10;64.70;;;;;;4983428;28;20109;-52
2021/04/25 03:04:37;;;;;;;12.02;2.85;;;6.20;64.60;;;;;;4975862;28;20031;-48
2021/04/25 03:07:03;;;;;;;8.65;2.50;;;6.30;64.20;;;;;;4976382;28;20070;-51
2021/04/25 03:09:28;;;;;;;13.18;2.88;;;6.30;63.90;;;;;;4978507;28;20055;-54
2021/04/25 03:11:54;;;;;;;7.72;2.75;;;6.20;64.30;;;;;;4974686;28;20054;-52
2021/04/25 03:14:19;;;;;;;13.10;3.15;;;6.20;64.90;;;;;;4975278;28;20475;-52
2021/04/25 03:16:45;;;;;;;7.82;2.75;;;6.30;64.50;;;;;;4978996;28;20453;-52
2021/04/25 03:19:11;;;;;;;15.13;3.40;;;6.30;64.20;;;;;;4972738;28;20046;-52
2021/04/25 03:21:37;;;;;;;10.32;2.92;;;6.30;64.50;;;;;;4983564;28;20092;-52
2021/04/25 03:24:03;;;;;;;9.63;2.95;;;6.20;64.80;;;;;;4973273;28;20125;-54
2021/04/25 03:26:29;;;;;;;12.85;3.03;;;6.30;63.70;;;;;;4981924;28;20058;-51
2021/04/25 03:28:55;;;;;;;8.93;2.95;;;6.20;64.30;;;;;;4972423;28;20117;-51
2021/04/25 03:31:21;;;;;;;9.60;2.83;;;6.20;64.70;;;;;;4983042;28;20149;-53
2021/04/25 03:33:46;;;;;;;9.77;2.80;;;6.20;64.90;;;;;;4974630;28;20088;-50
2021/04/25 03:36:12;;;;;;;13.13;3.47;;;6.10;65.00;;;;;;4982220;28;20119;-53
2021/04/25 03:38:38;;;;;;;9.27;2.80;;;6.10;65.20;;;;;;4980593;28;20054;-53
2021/04/25 03:41:04;;;;;;;12.05;2.67;;;6.10;65.30;;;;;;4984537;28;20147;-50
2021/04/25 03:43:29;;;;;;;10.73;2.70;;;6.30;64.80;;;;;;4981953;28;20073;-53
2021/04/25 03:45:55;;;;;;;8.15;2.17;;;6.30;64.40;;;;;;4984162;28;20506;-55
2021/04/25 03:48:22;;;;;;;9.55;2.47;;;6.20;63.70;;;;;;4985796;28;20113;-50
2021/04/25 03:50:48;;;;;;;9.23;2.33;;;6.20;64.10;;;;;;5006746;28;20051;-52
2021/04/25 03:53:14;;;;;;;8.02;2.28;;;6.40;63.70;;;;;;4981803;28;20091;-53
2021/04/25 03:55:40;;;;;;;9.40;2.95;;;6.30;63.60;;;;;;4983804;28;20051;-55
2021/04/25 03:58:06;;;;;;;6.05;2.13;;;6.20;64.20;;;;;;4980119;28;20038;-51
2021/04/25 04:00:32;;;;;;;12.95;2.75;;;6.20;64.30;;;;;;4979448;28;20038;-52
2021/04/25 04:02:58;;;;;;;13.65;3.72;;;6.20;64.60;;;;;;4975566;28;20058;-55
2021/04/25 04:05:24;;;;;;;7.78;2.60;;;6.20;64.40;;;;;;4976570;28;20031;-53
2021/04/25 04:07:49;;;;;;;13.40;3.05;;;6.20;64.50;;;;;;4982896;28;20129;-53
2021/04/25 04:10:15;;;;;;;7.32;2.22;;;6.10;64.90;;;;;;4979455;28;20175;-53
2021/04/25 04:12:41;;;;;;;9.60;2.35;;;6.10;64.70;;;;;;4975439;28;20031;-54
2021/04/25 04:15:07;;;;;;;6.82;2.00;;;6.10;64.70;;;;;;4973785;28;20038;-54
2021/04/25 04:17:33;;;;;;;8.35;1.88;;;6.10;64.80;;;;;;4977050;28;20494;-53
2021/04/25 04:19:59;;;;;;;13.38;2.40;;;6.10;64.80;;;;;;4983740;28;20104;-54
2021/04/25 04:22:26;;;;;;;8.43;2.03;;;6.10;64.90;;;;;;4985208;28;20097;-53
2021/04/25 04:24:52;;;;;;;15.27;2.30;;;6.10;65.30;;;;;;4987678;28;20042;-54
2021/04/25 04:27:17;;;;;;;6.75;2.22;;;6.10;65.50;;;;;;4982118;28;20046;-51
2021/04/25 04:29:43;;;;;;;8.23;2.03;;;6.00;65.30;;;;;;4983818;28;20062;-51
2021/04/25 04:32:09;;;;;;;8.70;2.22;;;6.10;64.90;;;;;;4982138;28;20074;-52
2021/04/25 04:34:36;;;;;;;5.82;1.67;;;6.10;64.80;;;;;;4989131;28;20046;-53
2021/04/25 04:37:02;;;;;;;9.20;2.00;;;6.20;64.80;;;;;;4985810;28;20043;-54
2021/04/25 04:39:28;;;;;;;8.48;2.10;;;6.10;64.90;;;;;;4986955;28;20417;-53
2021/04/25 04:41:54;;;;;;;13.20;2.20;;;6.10;65.30;;;;;;4982317;28;20047;-50
2021/04/25 04:44:20;;;;;;;8.20;2.10;;;6.10;65.10;;;;;;4978918;28;20513;-50
2021/04/25 04:46:46;;;;;;;7.32;2.20;;;6.00;65.40;;;;;;4971550;28;20039;-50
2021/04/25 04:49:11;;;;;;;10.73;1.92;;;6.10;65.10;;;;;;4979147;28;20117;-52
2021/04/25 04:51:40;;;;;;;12.90;2.00;;;6.20;65.10;;;;;;4985572;28;20049;-51
2021/04/25 04:54:06;;;;;;;11.00;2.40;;;6.20;65.30;;;;;;4982583;28;20043;-51
2021/04/25 04:56:32;;;;;;;12.00;2.90;;;6.20;65.30;;;;;;4989827;28;20026;-51
2021/04/25 04:58:57;;;;;;;9.98;1.80;;;6.20;65.60;;;;;;4984084;28;20041;-52
2021/04/25 05:01:23;;;;;;;7.35;2.00;;;6.20;64.90;;;;;;4989362;28;20555;-53
2021/04/25 05:03:49;;;;;;;7.28;1.70;;;6.40;64.50;;;;;;4976109;28;20052;-53
2021/04/25 05:06:14;;;;;;;10.18;1.95;;;6.40;64.70;;;;;;4977203;28;20133;-52
2021/04/25 05:08:40;;;;;;;8.05;2.33;;;6.30;64.90;;;;;;4977882;28;20404;-52
2021/04/25 05:11:06;;;;;;;10.75;1.80;;;6.20;64.90;;;;;;4975670;28;20120;-52
2021/04/25 05:13:31;;;;;;;12.57;2.17;;;6.30;64.80;;;;;;4973532;28;20073;-50
2021/04/25 05:15:57;;;;;;;10.77;2.13;;;6.40;64.10;;;;;;4987917;28;20038;-52
2021/04/25 05:18:23;;;;;;;10.07;2.00;;;6.40;64.00;;;;;;4984259;28;20043;-51
2021/04/25 05:20:49;;;;;;;8.10;2.17;;;6.30;64.10;;;;;;4985462;28;20062;-49
2021/04/25 05:23:14;;;;;;;9.13;2.00;;;6.30;64.20;;;;;;4984189;28;20014;-48
2021/04/25 05:25:40;;;;;;;11.82;2.05;;;6.20;64.30;;;;;;4976738;28;20042;-51
2021/04/25 05:28:06;;;;;;;5.90;1.60;;;6.20;64.50;;;;;;4977509;28;20039;-50
2021/04/25 05:30:32;;;;;;;10.32;2.67;;;6.20;64.60;;;;;;4979197;28;20058;-50
2021/04/25 05:32:58;;;;;;;11.23;1.95;;;6.20;64.30;;;;;;4982703;28;20050;-52
2021/04/25 05:35:23;;;;;;;9.32;1.85;;;6.20;64.70;;;;;;4989298;28;20074;-53
2021/04/25 05:37:49;;;;;;;9.55;1.95;;;6.30;64.40;;;;;;4980811;28;20300;-48
2021/04/25 05:40:15;;;;;;;10.20;2.00;;;6.30;64.60;;;;;;4983479;28;20460;-48
2021/04/25 05:42:42;;;;;;;14.38;1.90;;;6.30;65.00;;;;;;4976467;28;20050;-48
2021/04/25 05:45:19;;;;;;;8.95;2.05;;;6.30;64.90;;;;;;4984955;28;20319;-51
2021/04/25 05:47:46;;;;;;;11.57;2.20;;;6.40;64.60;;;;;;4983730;28;20042;-51
2021/04/25 05:50:12;;;;;;;12.27;1.88;;;6.40;64.80;;;;;;4985831;28;20529;-50
2021/04/25 05:52:38;;;;;;;16.88;2.38;;;6.40;65.10;;;;;;4984535;28;20498;-51
2021/04/25 05:55:05;;;;;;;8.30;1.98;;;6.40;65.30;;;;;;4982216;28;20096;-52
2021/04/25 05:57:30;;;;;;;13.60;2.03;;;6.40;65.40;;;;;;4981895;28;20473;-50
2021/04/25 05:59:56;;;;;;;9.15;2.08;;;6.50;65.00;;;;;;4978628;28;20053;-49
2021/04/25 06:02:22;;;;;;;7.47;1.98;;;6.50;64.90;;;;;;4985535;28;20498;-52
2021/04/25 06:04:48;;;;;;;10.07;2.40;;;6.50;65.40;;;;;;4972845;28;20051;-51
2021/04/25 06:07:13;;;;;;;8.25;2.17;;;6.50;65.40;;;;;;4979268;28;20062;-50
2021/04/25 06:09:39;;;;;;;11.43;2.13;;;6.50;65.50;;;;;;4979381;28;20089;-53
2021/04/25 06:12:05;;;;;;;9.15;2.15;;;6.70;64.00;;;;;;4977322;28;20046;-50
2021/04/25 06:14:31;;;;;;;8.98;2.05;;;6.70;64.20;;;;;;4971560;28;20070;-49
2021/04/25 06:16:57;;;;;;;9.82;1.98;;;6.50;64.90;;;;;;4972864;28;20049;-51
2021/04/25 06:19:23;;;;;;;8.75;2.05;;;6.50;65.50;;;;;;4988016;28;20050;-53
2021/04/25 06:21:49;;;;;;;4.47;1.38;;;6.60;65.40;;;;;;4986718;28;20043;-51
2021/04/25 06:24:14;;;;;;;11.20;2.08;;;6.70;64.70;;;;;;4970874;28;20558;-53
2021/04/25 06:26:40;;;;;;;10.23;2.22;;;6.60;64.40;;;;;;4980876;28;20038;-50
2021/04/25 06:29:05;;;;;;;11.38;2.38;;;6.60;64.60;;;;;;4984692;28;20517;-53
2021/04/25 06:31:31;;;;;;;11.40;1.98;;;6.60;64.20;;;;;;4986803;28;20402;-50
2021/04/25 06:33:58;;;;;;;10.98;1.90;;;6.80;63.40;;;;;;4982974;28;20721;-51
2021/04/25 06:36:23;;;;;;;8.30;2.28;;;6.80;63.10;;;;;;4986015;28;20045;-51
2021/04/25 06:38:49;;;;;;;11.13;2.20;;;6.80;63.20;;;;;;4978143;28;20042;-52
2021/04/25 06:41:14;;;;;;;11.55;1.90;;;6.70;63.60;;;;;;4983106;28;20144;-51
2021/04/25 06:43:40;;;;;;;10.48;2.10;;;6.70;63.80;;;;;;4983511;28;20110;-51
2021/04/25 06:46:05;;;;;;;9.27;1.98;;;6.90;62.60;;;;;;4975540;28;20038;-52
2021/04/25 06:48:31;;;;;;;8.18;1.92;;;6.90;63.10;;;;;;4985820;28;20038;-51
2021/04/25 06:50:57;;;;;;;11.90;2.22;;;6.80;63.50;;;;;;4984247;28;20487;-51
2021/04/25 06:53:23;;;;;;;10.05;2.92;;;6.80;64.30;;;;;;4978505;28;20457;-54
2021/04/25 06:55:48;;;;;;;13.75;2.28;;;6.70;64.40;;;;;;4973067;28;20043;-54
2021/04/25 06:58:14;;;;;;;7.20;1.63;;;6.80;65.00;;;;;;4976505;28;20137;-53
2021/04/25 07:00:40;;;;;;;10.40;1.83;;;6.90;64.30;;;;;;4976979;28;20035;-50
2021/04/25 07:03:06;;;;;;;13.65;2.20;;;7.00;63.50;;;;;;4977258;28;20115;-52
2021/04/25 07:05:32;;;;;;;9.32;2.17;;;6.90;63.60;;;;;;4980229;28;20030;-53
2021/04/25 07:07:58;;;;;;;11.85;2.38;;;6.90;63.90;;;;;;4976543;28;20049;-50
2021/04/25 07:10:24;;;;;;;10.85;2.00;;;6.80;64.00;;;;;;4985588;28;20031;-50
2021/04/25 07:12:51;;;;;;;6.55;1.60;;;6.90;62.90;;;;;;4987920;28;20141;-51
2021/04/25 07:15:17;;;;;;;4.88;1.92;;;6.90;62.70;;;;;;4973957;28;20039;-51
2021/04/25 07:17:42;;;;;;;10.57;1.98;;;6.90;62.30;;;;;;4979652;28;20092;-51
2021/04/25 07:20:10;;;;;;;10.30;2.03;;;6.90;61.80;;;;;;4980337;28;20193;-51
2021/04/25 07:22:36;;;;;;;8.07;2.03;;;7.00;61.20;;;;;;4977109;28;20046;-51
2021/04/25 07:25:03;;;;;;;7.90;1.70;;;7.10;61.30;;;;;;4977723;28;20073;-53
2021/04/25 07:27:28;;;;;;;9.88;2.03;;;7.10;61.40;;;;;;4974633;28;20042;-50
2021/04/25 07:29:54;;;;;;;6.68;2.10;;;7.10;61.40;;;;;;4981652;28;20409;-53
2021/04/25 07:32:20;;;;;;;7.88;1.80;;;7.10;61.20;;;;;;4983981;28;20054;-51
2021/04/25 07:34:46;;;;;;;8.93;1.85;;;7.20;61.20;;;;;;4982152;28;20081;-50
2021/04/25 07:37:13;;;;;;;9.55;1.88;;;7.30;60.00;;;;;;4982105;28;20111;-51
2021/04/25 07:39:40;;;;;;;9.82;2.22;;;7.40;59.30;;;;;;4984341;28;20569;-51
2021/04/25 07:42:06;;;;;;;13.10;2.83;;;7.30;60.40;;;;;;4978093;28;20034;-51
2021/04/25 07:44:32;;;;;;;10.20;1.90;;;7.40;59.90;;;;;;4988532;28;20035;-51
2021/04/25 07:46:59;;;;;;;6.47;1.67;;;7.60;58.50;;;;;;4983138;28;20103;-50
2021/04/25 07:49:25;;;;;;;10.85;1.92;;;7.50;59.40;;;;;;4990632;28;20039;-50
2021/04/25 07:51:51;;;;;;;10.82;2.00;;;7.50;59.70;;;;;;4970948;28;20066;-52
2021/04/25 07:54:17;;;;;;;11.60;2.17;;;7.60;59.60;;;;;;4980378;28;20477;-49
2021/04/25 07:56:43;;;;;;;9.93;2.20;;;7.70;60.40;;;;;;4985293;28;20117;-50
2021/04/25 07:59:08;;;;;;;8.52;2.30;;;7.50;60.10;;;;;;4982687;28;20391;-53
2021/04/25 08:01:34;;;;;;;10.93;2.22;;;7.50;60.90;;;;;;4994216;28;20061;-52
2021/04/25 08:04:00;;;;;;;9.98;2.22;;;7.50;61.10;;;;;;4980591;28;20133;-50
2021/04/25 08:06:26;;;;;;;14.68;4.25;;;7.40;61.50;;;;;;4984623;28;20050;-49
2021/04/25 08:08:55;;;;;;;26.73;13.32;;;7.50;61.30;;;;;;4977780;28;20049;-50
2021/04/25 08:11:22;;;;;;;13.75;2.40;;;7.60;61.20;;;;;;4987003;28;20127;-53
2021/04/25 08:13:48;;;;;;;13.40;3.15;;;7.50;61.40;;;;;;4986309;28;20074;-52
2021/04/25 08:16:14;;;;;;;7.80;2.88;;;7.60;61.90;;;;;;4985422;28;20043;-52
2021/04/25 08:18:40;;;;;;;11.80;2.50;;;7.50;62.30;;;;;;4978137;28;20039;-50
2021/04/25 08:21:07;;;;;;;9.93;2.70;;;7.60;62.80;;;;;;4982341;28;20472;-52
2021/04/25 08:23:34;;;;;;;12.65;2.05;;;7.50;63.00;;;;;;4984728;28;20056;-53
2021/04/25 08:25:59;;;;;;;8.98;2.05;;;7.60;63.40;;;;;;4980061;28;20117;-51
2021/04/25 08:28:25;;;;;;;10.07;2.60;;;7.70;63.60;;;;;;4978195;28;20141;-52
2021/04/25 08:30:52;;;;;;;9.13;3.03;;;7.60;63.30;;;;;;4988327;28;20083;-50
2021/04/25 08:33:18;;;;;;;5.20;1.83;;;7.50;62.90;;;;;;4985290;28;20035;-54
2021/04/25 08:35:43;;;;;;;8.10;1.77;;;7.50;63.80;;;;;;4980509;28;20046;-53
2021/04/25 08:38:09;;;;;;;6.75;1.73;;;7.60;63.80;;;;;;4981693;28;20136;-54
2021/04/25 08:40:37;;;;;;;8.48;2.40;;;7.70;64.30;;;;;;4986339;28;20043;-50
2021/04/25 08:43:04;;;;;;;6.40;2.05;;;7.80;64.30;;;;;;4956683;28;20046;-55
2021/04/25 08:45:30;;;;;;;8.18;1.92;;;7.90;63.80;;;;;;4987449;28;20172;-55
2021/04/25 08:47:58;;;;;;;10.70;2.47;;;7.80;64.10;;;;;;4983189;28;20479;-55
2021/04/25 08:50:28;;;;;;;11.77;2.40;;;7.80;63.80;;;;;;4988641;28;20050;-53
2021/04/25 08:52:55;;;;;;;11.35;2.38;;;7.80;63.80;;;;;;4979027;28;20034;-50
2021/04/25 08:55:22;;;;;;;11.38;2.53;;;7.90;63.60;;;;;;4981425;28;20043;-49
2021/04/25 08:57:49;;;;;;;8.15;1.90;;;8.00;62.20;;;;;;4977911;28;20039;-50
2021/04/25 09:00:15;;;;;;;9.32;2.10;;;8.10;61.10;;;;;;4987184;28;20093;-49
2021/04/25 09:02:42;;;;;;;8.20;2.10;;;8.10;60.60;;;;;;4966941;28;20053;-49
2021/04/25 09:05:08;;;;;;;12.38;2.42;;;8.10;59.90;;;;;;4974677;28;20031;-51
2021/04/25 09:07:33;;;;;;;12.43;3.15;;;8.20;60.00;;;;;;4980551;28;20573;-48
2021/04/25 09:10:08;;;;;;;11.55;2.10;;;8.10;60.10;;;;;;4980643;28;20126;-51
2021/04/25 09:12:39;;;;;;;10.35;1.80;;;8.20;60.40;;;;;;4977843;28;20043;-52
2021/04/25 09:15:11;;;;;;;10.00;1.80;;;8.30;61.10;;;;;;4976510;28;20038;-49
2021/04/25 09:17:59;;;;;;;8.77;1.83;;;8.40;61.00;;;;;;4974395;28;20070;-52
2021/04/25 09:20:32;;;;;;;7.25;2.03;;;8.50;58.70;;;;;;4978451;28;20092;-52
2021/04/25 09:22:58;;;;;;;4.68;1.50;;;8.60;59.40;;;;;;4973481;28;20073;-49
2021/04/25 09:25:24;;;;;;;7.57;1.75;;;8.60;56.10;;;;;;4986772;28;20031;-49
2021/04/25 09:27:51;;;;;;;9.38;1.83;;;8.60;57.10;;;;;;4981995;28;20035;-51
2021/04/25 09:30:25;;;;;;;6.70;1.42;;;8.50;57.30;;;;;;4989247;28;20451;-49
2021/04/25 09:33:03;;;;;;;9.40;1.52;;;8.50;56.50;;;;;;4988892;28;20053;-51
2021/04/25 09:35:29;;;;;;;11.63;1.90;;;8.50;55.20;;;;;;4984801;28;20046;-50
2021/04/25 09:37:55;;;;;;;6.80;1.65;;;8.50;55.90;;;;;;4979265;28;20084;-54
2021/04/25 09:40:22;;;;;;;9.57;2.22;;;8.60;55.20;;;;;;4979037;28;20038;-51
2021/04/25 09:43:06;;;;;;;10.50;2.10;;;8.50;56.00;;;;;;4975100;28;20038;-52
2021/04/25 09:45:34;;;;;;;8.48;2.33;;;8.60;56.70;;;;;;4981144;28;20044;-50
2021/04/25 09:48:01;;;;;;;8.25;1.92;;;8.60;56.70;;;;;;4985219;28;20045;-53
2021/04/25 09:50:30;;;;;;;8.68;1.90;;;8.70;55.80;;;;;;4977277;28;20087;-52
2021/04/25 09:52:56;;;;;;;10.48;2.25;;;8.60;56.00;;;;;;4979232;28;20524;-54
2021/04/25 09:55:27;;;;;;;11.77;2.22;;;8.60;56.30;;;;;;4979241;28;20085;-51
2021/04/25 09:57:57;;;;;;;9.60;1.83;;;8.80;55.20;;;;;;4983601;28;20044;-52
2021/04/25 10:00:40;;;;;;;9.60;2.13;;;8.90;55.50;;;;;;4951025;28;20052;-51
2021/04/25 10:03:10;;;;;;;11.57;1.95;;;8.80;53.60;;;;;;4972734;28;20047;-50
2021/04/25 10:05:36;;;;;;;7.15;1.83;;;8.80;54.20;;;;;;4975321;28;20042;-53
2021/04/25 10:08:03;;;;;;;6.90;2.08;;;8.70;55.00;;;;;;4977310;28;20046;-49
2021/04/25 10:10:29;;;;;;;11.25;2.05;;;8.80;55.80;;;;;;4983238;28;20042;-49
2021/04/25 10:12:55;;;;;;;7.68;1.70;;;8.80;55.70;;;;;;4976025;28;20074;-53
2021/04/25 10:15:22;;;;;;;8.85;2.30;;;8.90;54.30;;;;;;4976254;28;20047;-51
2021/04/25 10:17:50;;;;;;;12.07;1.90;;;8.90;54.70;;;;;;5004933;28;20116;-52
2021/04/25 10:20:19;;;;;;;11.57;2.00;;;8.90;55.00;;;;;;4980572;28;20043;-51
2021/04/25 10:22:47;;;;;;;7.65;1.77;;;8.90;55.90;;;;;;4977995;28;20038;-51
2021/04/25 10:25:34;;;;;;;12.95;2.30;;;8.90;54.90;;;;;;4982958;28;20151;-49
2021/04/25 10:28:41;;;;;;;10.45;1.90;;;8.80;54.10;;;;;;4976109;28;20038;-51
2021/04/25 10:31:14;;;;;;;7.50;1.92;;;8.90;54.10;;;;;;4983581;28;20053;-51
2021/04/25 10:33:52;;;;;;;;;;;8.90;55.60;;;;;;4985039;28;20038;-52
2021/04/25 10:36:19;;;;;;;5.22;1.90;;;9.00;56.40;;;;;;4979275;28;20386;-51
2021/04/25 10:38:44;;;;;;;6.47;1.88;;;9.10;55.70;;;;;;4975452;28;20042;-51
2021/04/25 10:41:25;;;;;;;7.00;2.00;;;9.20;54.50;;;;;;4970273;28;20046;-51
2021/04/25 10:44:05;;;;;;;11.73;2.05;;;9.30;53.80;;;;;;4985346;28;20096;-51
2021/04/25 10:46:53;;;;;;;9.98;2.25;;;9.20;53.90;;;;;;4987847;28;20104;-51
2021/04/25 10:49:30;;;;;;;7.07;1.88;;;9.20;54.30;;;;;;4982411;28;20176;-52
2021/04/25 10:52:43;;;;;;;9.82;2.17;;;9.20;54.30;;;;;;4984514;28;20047;-49
2021/04/25 10:58:00;;;;;;;6.05;1.85;;;9.20;54.60;;;;;;4985959;28;20047;-51
2021/04/25 11:00:37;;;;;;;10.50;2.00;;;9.20;54.80;;;;;;4975107;28;20042;-51
2021/04/25 11:03:32;;;;;;;7.95;1.70;;;9.30;54.60;;;;;;4984808;28;20042;-51
2021/04/25 11:05:57;;;;;;;8.38;2.13;;;9.30;53.50;;;;;;5015989;28;20407;-51
2021/04/25 11:08:32;;;;;;;6.53;2.35;;;9.30;53.50;;;;;;4985570;28;20034;-53
2021/04/25 11:11:10;;;;;;;7.05;2.00;;;9.10;54.70;;;;;;4984340;28;20070;-53
2021/04/25 11:13:57;;;;;;;7.55;2.33;;;9.20;55.20;;;;;;4979520;28;20039;-51
2021/04/25 11:16:21;;;;;;;6.22;1.80;;;9.30;55.30;;;;;;4981167;28;20084;-54
2021/04/25 11:19:00;;;;;;;6.47;2.00;;;9.40;54.70;;;;;;4985888;28;20074;-55
2021/04/25 11:24:01;;;;;;;7.70;1.83;;;9.50;53.90;;;;;;4984524;28;20122;-54
2021/04/25 11:29:02;;;;;;;12.98;1.80;;;9.50;54.60;;;;;;4981528;28;20560;-52
2021/04/25 11:31:46;;;;;;;8.35;1.98;;;9.60;54.70;;;;;;4980623;28;20045;-51
2021/04/25 11:34:31;;;;;;;8.85;1.83;;;9.60;55.10;;;;;;4983977;28;20038;-54
2021/04/25 11:37:01;;;;;;;5.25;1.63;;;9.70;54.10;;;;;;4984773;28;20062;-50
2021/04/25 11:39:29;;;;;;;6.65;2.13;;;9.80;53.60;;;;;;4981796;28;20030;-51
2021/04/25 11:41:56;;;;;;;5.22;1.98;;;9.80;52.60;;;;;;4980907;28;20122;-52
2021/04/25 11:44:31;;;;;;;5.97;2.00;;;9.90;50.60;;;;;;4982463;28;20357;-51
2021/04/25 11:46:58;;;;;;;9.02;2.10;;;9.90;51.80;;;;;;4988702;28;20050;-52
2021/04/25 11:49:33;;;;;;;10.30;2.90;;;9.90;52.90;;;;;;4983979;28;20568;-53
2021/04/25 11:52:20;;;;;;;6.35;1.80;;;10.00;52.00;;;;;;4981751;28;20051;-53
2021/04/25 11:54:47;;;;;;;6.45;1.73;;;10.00;50.90;;;;;;4983395;28;20098;-54
2021/04/25 11:57:19;;;;;;;7.28;1.90;;;10.10;51.00;;;;;;4985034;28;20039;-54
2021/04/25 11:59:54;;;;;;;8.90;2.45;;;10.20;49.70;;;;;;4983849;28;20091;-52
2021/04/25 12:02:21;;;;;;;6.95;1.98;;;10.20;51.40;;;;;;4975112;28;20088;-55
2021/04/25 12:04:48;;;;;;;9.02;3.08;;;10.20;51.40;;;;;;4977070;28;20415;-53
2021/04/25 12:07:31;;;;;;;10.32;2.50;;;10.30;51.70;;;;;;4976880;28;20046;-56
2021/04/25 12:09:57;;;;;;;4.38;1.60;;;10.40;51.10;;;;;;4981599;28;20046;-54
2021/04/25 12:12:23;;;;;;;11.98;2.47;;;10.40;49.80;;;;;;4986725;28;20035;-57
2021/04/25 12:14:59;;;;;;;6.72;2.20;;;10.40;50.80;;;;;;4988816;28;20129;-57
2021/04/25 12:17:25;;;;;;;11.13;2.17;;;10.30;50.90;;;;;;4980213;28;20031;-55
2021/04/25 12:19:51;;;;;;;6.15;2.00;;;10.30;51.00;;;;;;4984175;28;20503;-58
2021/04/25 12:22:16;;;;;;;10.70;2.08;;;10.40;50.30;;;;;;4987016;28;20422;-57
2021/04/25 12:24:42;;;;;;;9.00;2.15;;;10.40;50.10;;;;;;4976882;28;20050;-57
2021/04/25 12:27:08;;;;;;;8.48;2.92;;;10.30;50.50;;;;;;4976843;28;20078;-58
2021/04/25 12:29:38;;;;;;;10.50;2.10;;;10.20;50.60;;;;;;4980862;28;20168;-58
2021/04/25 12:32:05;;;;;;;8.73;2.10;;;10.10;51.20;;;;;;4985198;28;20533;-57
2021/04/25 12:34:32;;;;;;;10.00;2.58;;;10.20;51.40;;;;;;4978257;28;20039;-58
2021/04/25 12:36:59;;;;;;;8.98;2.70;;;10.20;52.00;;;;;;4985919;28;20089;-56
2021/04/25 12:39:41;;;;;;;7.22;1.95;;;10.30;51.80;;;;;;4988963;28;20043;-57
2021/04/25 12:42:20;;;;;;;6.22;2.30;;;10.20;50.50;;;;;;4968032;28;20034;-53
2021/04/25 12:44:46;;;;;;;6.50;2.03;;;10.20;50.90;;;;;;4983766;28;20438;-52
2021/04/25 12:47:12;;;;;;;6.05;2.10;;;10.30;51.40;;;;;;4981948;28;20038;-52
2021/04/25 12:49:39;;;;;;;7.43;2.00;;;10.50;50.90;;;;;;4987409;28;20150;-53
2021/04/25 12:52:06;;;;;;;16.65;2.53;;;10.80;51.20;;;;;;4981563;28;20411;-52
2021/04/25 12:54:43;;;;;;;8.13;1.80;;;11.00;51.70;;;;;;4982535;28;20096;-54
2021/04/25 12:57:10;;;;;;;8.30;2.08;;;11.20;48.00;;;;;;4982845;28;20093;-54
2021/04/25 12:59:38;;;;;;;6.07;2.08;;;11.10;48.90;;;;;;4983575;28;20049;-53
2021/04/25 13:02:13;;;;;;;9.10;2.33;;;11.10;48.00;;;;;;4980057;28;20418;-54
2021/04/25 13:04:43;;;;;;;7.07;2.10;;;10.90;48.20;;;;;;4977404;28;20565;-54